To NAV CANADA Home Page Login to a new session Search on AWWS site Disclaimer Vers la page française équivalente Tips FAQ What's new on the site To the Forecasts and Observations / NOTAM section To "File a Flight Plan" website Publications and other links Update of the User's profile FIC Telephone Numbers My Weather Data Folder Route Weather Data Regional Weather Data Local Weather Data To the Forecasts and Observations / NOTAM section
Request Generated 04/24/2019 at 16:02:16 UTC . Weather information available at that time is displayed.

METAR/TAF

TULITA/NT    (show WxCam)

METAR CZFN 241600Z 04005KT 360V080 20SM -SN BKN013 M06/M10 A3000 RMK SC7 SLP168=
METAR CZFN 241500Z 03007KT 10SM -SN BKN013 M07/M10 A2997 RMK SC7 S(TR) AFT 15UTC / SNW CVR / TRACE LOOSE / SLP158=
LWIS CZFN 241400Z AUTO 03008KT M07/M10 A2995=

CZFN - No TAF is issued for this station

Your time UTC time
Weather data provided by Environment Canada and NAV CANADA